Main page
METAR-TAF:

METAR-TAF

Airports :

RAF Spadeadam

Spadeadam, England

latitude: 55-03N, longitude: 002-33W, elevation: 325 m

Current weather observation

The report was made 59 minutes ago, at 04:50 UTC
Wind 8 kt from the West
Temperature 11°C
Humidity 100%
Pressure 1012 hPa
Visibility: 4100 m
mist

METAR: EGOM 170450Z AUTO 27008KT 4100 BR BKN005/// BKN080/// 11/11 Q1012

Time: 06:49 (05:49 UTC)


TAF: missing

Weather observations and forecasts of more than 4000 airports (METAR and TAF reports).

The available stations are represented by yellow and red dots on the map.

Hover mouse over dot to see the name of the station.

Then click to see weather observations and forecasts.

To change the map : click on the green buttons with a black cross to zoom in, on the green button with a dash to zoom out, or on the green arrows for adjacent maps.


METAR-TAF: